Sabine, Texas
Current Conditions -  °F | °C
As of 4:53 PM on Saturday 20 Dec 2014 (Local Time) from KBPT Reporting Station
Clear Clear  
Wind Chill: 57°   Ceiling: Unl
Heat Index: 57°   Visibility: 10mi
Dew Point: 49°   Wind: 6mph
Humidity: 74%   Direction: 350°N
Pressure: 30.13"   Gusts: NA
Location:  29.7569°N, 94.1898°W
Report Text: KBPT 202253Z 35005KT 10SM CLR 14/09 A3013 RMK AO2 SLP202 T01390094
Loading
Personal Weather Stations






























Interactive Weather Map New forecast layout! Learn more

10-Day Weather Forecast

Advertisements
Track Severe Weather on mobile